createdAt,value
2019-03-23T00:00:08.847Z,76.83
2019-03-23T00:02:38.028Z,72.23
2019-03-23T00:05:08.370Z,80.07
2019-03-23T00:07:37.701Z,73.03
2019-03-23T00:10:25.070Z,77.57
2019-03-23T00:13:12.052Z,71.50
2019-03-23T00:15:41.209Z,68.20
2019-03-23T00:18:10.404Z,68.17
2019-03-23T00:20:39.606Z,72.73
2019-03-23T00:23:08.886Z,70.37
2019-03-23T00:25:38.096Z,65.93
2019-03-23T00:28:07.276Z,65.80
2019-03-23T00:30:36.474Z,59.63
2019-03-23T00:33:05.740Z,67.70
2019-03-23T00:35:34.941Z,66.03
2019-03-23T00:38:04.234Z,59.67
2019-03-23T00:40:33.431Z,66.13
2019-03-23T00:43:02.686Z,59.67
2019-03-23T00:45:33.541Z,62.23
2019-03-23T00:48:02.717Z,60.33
2019-03-23T00:50:31.928Z,65.77
2019-03-23T00:53:01.112Z,59.73
2019-03-23T00:55:30.368Z,57.50
2019-03-23T00:57:59.562Z,59.17
2019-03-23T01:00:28.745Z,57.50
2019-03-23T01:02:58.006Z,55.20
2019-03-23T01:05:27.200Z,57.07
2019-03-23T01:07:56.403Z,50.37
2019-03-23T01:10:25.603Z,54.13
2019-03-23T01:12:54.794Z,50.03
2019-03-23T01:15:24.008Z,54.50
2019-03-23T01:17:53.189Z,52.47
2019-03-23T01:20:22.387Z,51.47
2019-03-23T01:22:51.644Z,52.20
2019-03-23T01:25:20.980Z,79.17
2019-03-23T01:27:50.118Z,52.67
2019-03-23T01:30:19.392Z,55.47
2019-03-23T01:32:48.579Z,52.10
2019-03-23T01:35:17.778Z,49.47
2019-03-23T01:37:46.984Z,55.80
2019-03-23T01:40:16.157Z,51.73
2019-03-23T01:42:45.344Z,58.77
2019-03-23T01:45:14.798Z,51.10
2019-03-23T01:47:44.002Z,47.77
2019-03-23T01:50:13.742Z,48.07
2019-03-23T01:52:42.958Z,53.00
2019-03-23T01:55:12.912Z,47.73
2019-03-23T01:57:42.091Z,51.60
2019-03-23T02:00:13.451Z,50.60
2019-03-23T02:02:42.642Z,53.70
2019-03-23T02:05:11.932Z,52.13
2019-03-23T02:07:41.161Z,53.73
2019-03-23T02:10:11.971Z,52.33
2019-03-23T02:12:41.162Z,49.80
2019-03-23T02:15:13.630Z,50.63
2019-03-23T02:17:42.812Z,51.60
2019-03-23T02:20:13.046Z,50.80
2019-03-23T02:22:42.263Z,53.40
2019-03-23T02:25:11.635Z,47.53
2019-03-23T02:27:40.834Z,49.70
2019-03-23T02:30:11.371Z,55.90
2019-03-23T02:32:40.701Z,55.73
2019-03-23T02:35:10.624Z,55.80
2019-03-23T02:37:39.846Z,55.10
2019-03-23T02:40:10.390Z,53.07
2019-03-23T02:42:39.589Z,56.27
2019-03-23T02:45:10.920Z,54.83
2019-03-23T02:47:40.123Z,57.30
2019-03-23T02:50:10.454Z,56.93
2019-03-23T02:52:39.659Z,61.03
2019-03-23T02:55:10.056Z,63.00
2019-03-23T02:57:39.361Z,66.90
2019-03-23T03:00:12.203Z,57.93
2019-03-23T03:02:41.478Z,67.27
2019-03-23T03:05:11.304Z,65.50
2019-03-23T03:07:43.275Z,61.53
2019-03-23T03:10:14.493Z,65.77
2019-03-23T03:12:43.668Z,73.20
2019-03-23T03:15:12.995Z,73.10
2019-03-23T03:17:42.203Z,70.90
2019-03-23T03:20:11.536Z,69.03
2019-03-23T03:22:40.718Z,69.70
2019-03-23T03:25:10.114Z,60.80
2019-03-23T03:27:39.319Z,70.13
2019-03-23T03:30:11.163Z,70.57
2019-03-23T03:32:40.407Z,68.93
2019-03-23T03:35:10.027Z,67.20
2019-03-23T03:37:39.223Z,60.40
2019-03-23T03:40:09.252Z,67.37
2019-03-23T03:42:38.473Z,62.63
2019-03-23T03:45:09.820Z,69.70
2019-03-23T03:47:41.179Z,62.93
2019-03-23T03:50:11.035Z,63.37
2019-03-23T03:52:40.218Z,67.03
2019-03-23T03:55:09.876Z,64.20
2019-03-23T03:57:39.065Z,58.40
2019-03-23T04:00:09.693Z,60.17
2019-03-23T04:02:38.879Z,57.90
2019-03-23T04:05:09.101Z,62.27
2019-03-23T04:07:38.312Z,57.47
2019-03-23T04:10:08.405Z,60.30
2019-03-23T04:12:37.531Z,58.57
2019-03-23T04:15:08.673Z,58.13
2019-03-23T04:17:37.856Z,62.53
2019-03-23T04:20:08.283Z,59.17
2019-03-23T04:22:37.478Z,57.10
2019-03-23T04:25:10.777Z,57.07
2019-03-23T04:27:39.977Z,59.10
2019-03-23T04:30:11.339Z,57.60
2019-03-23T04:32:40.541Z,59.83
2019-03-23T04:35:10.156Z,56.77
2019-03-23T04:37:39.413Z,61.40
2019-03-23T04:40:11.008Z,54.80
2019-03-23T04:42:40.292Z,52.83
2019-03-23T04:45:10.906Z,51.63
2019-03-23T04:47:40.113Z,51.37
2019-03-23T04:50:11.054Z,50.27
2019-03-23T04:52:40.246Z,51.43
2019-03-23T04:55:13.183Z,51.53
2019-03-23T04:57:42.434Z,49.87
2019-03-23T05:00:17.432Z,50.37
2019-03-23T05:02:46.607Z,50.27
2019-03-23T05:05:15.865Z,52.10
2019-03-23T05:07:45.083Z,49.03
2019-03-23T05:10:14.398Z,49.93
2019-03-23T05:12:43.588Z,50.17
2019-03-23T05:15:12.926Z,51.07
2019-03-23T05:17:42.129Z,54.27
2019-03-23T05:20:15.210Z,51.53
2019-03-23T05:22:44.397Z,53.50
2019-03-23T05:25:25.448Z,50.47
2019-03-23T05:27:54.707Z,48.77
2019-03-23T05:30:23.908Z,50.67
2019-03-23T05:32:53.549Z,53.27
2019-03-23T05:35:22.760Z,50.43
2019-03-23T05:37:51.951Z,47.93
2019-03-23T05:40:21.155Z,53.40
2019-03-23T05:42:50.341Z,55.83
2019-03-23T05:45:19.533Z,51.07
2019-03-23T05:47:48.728Z,46.97
2019-03-23T05:50:17.907Z,52.10
2019-03-23T05:52:47.127Z,49.63
2019-03-23T05:55:16.292Z,45.90
2019-03-23T05:57:45.488Z,50.17
2019-03-23T06:00:16.389Z,43.97
2019-03-23T06:02:45.568Z,43.60
2019-03-23T06:05:14.843Z,44.97
2019-03-23T06:07:43.985Z,41.80
2019-03-23T06:10:13.357Z,45.10
2019-03-23T06:12:42.579Z,42.43
2019-03-23T06:15:11.926Z,46.57
2019-03-23T06:17:41.139Z,45.13
2019-03-23T06:20:10.673Z,45.37
2019-03-23T06:22:39.948Z,43.03
2019-03-23T06:25:09.390Z,46.77
2019-03-23T06:27:38.581Z,44.37
2019-03-23T06:30:10.661Z,44.47
2019-03-23T06:32:39.841Z,44.20
2019-03-23T06:35:09.310Z,44.63
2019-03-23T06:37:38.613Z,43.73
2019-03-23T06:40:10.062Z,52.23
2019-03-23T06:42:39.366Z,44.47
2019-03-23T06:45:11.221Z,43.97
2019-03-23T06:47:40.402Z,46.03
2019-03-23T06:50:11.327Z,42.40
2019-03-23T06:52:40.581Z,44.13
2019-03-23T06:55:10.479Z,44.20
2019-03-23T06:57:39.745Z,43.87
2019-03-23T07:00:14.644Z,44.57
2019-03-23T07:02:43.908Z,47.20
2019-03-23T07:05:14.045Z,47.23
2019-03-23T07:07:43.350Z,43.23
2019-03-23T07:10:13.813Z,48.00
2019-03-23T07:12:43.065Z,44.83
2019-03-23T07:15:19.780Z,44.10
2019-03-23T07:17:43.592Z,44.73
2019-03-23T07:20:14.616Z,47.57
2019-03-23T07:22:43.796Z,46.80
2019-03-23T07:25:13.205Z,47.00
2019-03-23T07:27:42.455Z,42.73
2019-03-23T07:30:14.658Z,45.30
2019-03-23T07:32:43.848Z,44.10
2019-03-23T07:35:14.188Z,45.93
2019-03-23T07:37:43.394Z,44.70
2019-03-23T07:40:13.542Z,45.00
2019-03-23T07:42:43.057Z,44.30
2019-03-23T07:45:14.038Z,47.17
2019-03-23T07:47:43.303Z,44.47
2019-03-23T07:50:13.857Z,46.00
2019-03-23T07:52:45.205Z,47.20
2019-03-23T07:55:16.405Z,52.30
2019-03-23T07:57:45.779Z,46.43
2019-03-23T08:00:21.541Z,42.43
2019-03-23T08:02:51.087Z,49.53
2019-03-23T08:05:20.288Z,49.00
2019-03-23T08:07:51.058Z,49.53
2019-03-23T08:10:31.301Z,45.07
2019-03-23T08:13:00.620Z,46.67
2019-03-23T08:15:30.286Z,45.40
2019-03-23T08:17:59.466Z,49.83
2019-03-23T08:20:28.808Z,46.50
2019-03-23T08:22:58.004Z,43.30
2019-03-23T08:25:27.285Z,45.10
2019-03-23T08:27:56.516Z,47.03
2019-03-23T08:30:25.784Z,41.93
2019-03-23T08:32:54.980Z,41.47
2019-03-23T08:35:24.205Z,40.13
2019-03-23T08:37:53.365Z,41.97
2019-03-23T08:40:22.567Z,42.07
2019-03-23T08:42:51.769Z,43.87
2019-03-23T08:45:20.967Z,41.43
2019-03-23T08:47:50.165Z,43.67
2019-03-23T08:50:19.363Z,42.00
2019-03-23T08:52:48.555Z,44.67
2019-03-23T08:55:17.785Z,41.97
2019-03-23T08:57:46.975Z,42.77
2019-03-23T09:00:16.240Z,40.50
2019-03-23T09:02:45.377Z,44.03
2019-03-23T09:05:14.670Z,41.07
2019-03-23T09:07:43.885Z,43.07
2019-03-23T09:10:13.175Z,40.10
2019-03-23T09:12:42.749Z,38.53
2019-03-23T09:15:12.101Z,35.83
2019-03-23T09:17:41.272Z,40.93
2019-03-23T09:20:11.731Z,36.93
2019-03-23T09:22:41.038Z,37.93
2019-03-23T09:25:10.351Z,44.87
2019-03-23T09:27:39.544Z,36.40
2019-03-23T09:30:10.974Z,37.80
2019-03-23T09:32:40.163Z,40.97
2019-03-23T09:35:09.649Z,35.10
2019-03-23T09:37:38.831Z,38.53
2019-03-23T09:40:11.069Z,38.87
2019-03-23T09:42:40.339Z,35.90
2019-03-23T09:45:09.855Z,40.07
2019-03-23T09:47:39.068Z,38.40
2019-03-23T09:50:10.100Z,42.97
2019-03-23T09:52:39.322Z,39.87
2019-03-23T09:55:08.651Z,36.07
2019-03-23T09:57:37.842Z,38.90
2019-03-23T10:00:09.191Z,38.63
2019-03-23T10:02:38.302Z,37.83
2019-03-23T10:05:07.947Z,39.90
2019-03-23T10:07:37.174Z,39.23
2019-03-23T10:10:07.495Z,40.87
2019-03-23T10:12:36.715Z,37.27
2019-03-23T10:15:07.327Z,34.87
2019-03-23T10:17:36.602Z,35.87
2019-03-23T10:20:06.744Z,38.20
2019-03-23T10:22:35.981Z,35.87
2019-03-23T10:25:08.314Z,33.13
2019-03-23T10:27:37.488Z,34.70
2019-03-23T10:30:08.142Z,37.87
2019-03-23T10:32:37.317Z,35.77
2019-03-23T10:35:08.049Z,35.47
2019-03-23T10:37:37.422Z,31.93
2019-03-23T10:40:08.463Z,33.63
2019-03-23T10:42:37.640Z,29.97
2019-03-23T10:45:11.544Z,30.17
2019-03-23T10:47:40.857Z,31.53
2019-03-23T10:50:10.246Z,30.90
2019-03-23T10:52:39.444Z,25.87
2019-03-23T10:55:08.876Z,28.17
2019-03-23T10:57:38.112Z,25.67
2019-03-23T11:00:10.151Z,30.17
2019-03-23T11:02:39.355Z,22.93
2019-03-23T11:05:08.780Z,26.07
2019-03-23T11:07:38.106Z,23.87
2019-03-23T11:10:12.335Z,20.93
2019-03-23T11:12:41.629Z,26.70
2019-03-23T11:15:11.444Z,14.37
2019-03-23T11:17:40.648Z,23.90
2019-03-23T11:20:12.385Z,16.60
2019-03-23T11:22:41.602Z,24.87
2019-03-23T11:25:11.840Z,16.90
2019-03-23T11:27:41.028Z,16.83
2019-03-23T11:30:13.124Z,17.83
2019-03-23T11:32:42.324Z,20.37
2019-03-23T11:35:11.727Z,16.80
2019-03-23T11:37:41.160Z,20.17
2019-03-23T11:40:11.751Z,14.80
2019-03-23T11:42:49.191Z,17.87
2019-03-23T11:45:12.661Z,13.70
2019-03-23T11:47:41.888Z,9.07
2019-03-23T11:50:12.120Z,14.90
2019-03-23T11:52:41.370Z,10.17
2019-03-23T11:55:10.808Z,12.37
2019-03-23T11:57:40.016Z,12.03
2019-03-23T12:00:12.477Z,9.00
2019-03-23T12:02:41.736Z,8.90
2019-03-23T12:05:11.369Z,14.67
2019-03-23T12:07:40.569Z,11.53
2019-03-23T12:10:13.832Z,12.00
2019-03-23T12:12:43.023Z,11.77
2019-03-23T12:15:13.860Z,17.50
2019-03-23T12:17:43.054Z,17.63
2019-03-23T12:20:13.269Z,13.67
2019-03-23T12:22:42.495Z,12.10
2019-03-23T12:25:11.971Z,13.20
2019-03-23T12:27:41.167Z,13.90
2019-03-23T12:30:13.377Z,15.07
2019-03-23T12:32:42.554Z,12.53
2019-03-23T12:35:12.681Z,11.10
2019-03-23T12:37:41.949Z,14.83
2019-03-23T12:40:11.610Z,10.57
2019-03-23T12:42:40.767Z,14.73
2019-03-23T12:45:11.105Z,15.77
2019-03-23T12:47:40.366Z,10.67
2019-03-23T12:50:11.218Z,12.47
2019-03-23T12:52:40.415Z,11.80
2019-03-23T12:55:09.848Z,18.60
2019-03-23T12:57:39.039Z,12.67
2019-03-23T13:00:11.616Z,9.90
2019-03-23T13:02:40.900Z,14.67
2019-03-23T13:05:10.342Z,7.27
2019-03-23T13:07:39.526Z,7.47
2019-03-23T13:10:11.781Z,10.10
2019-03-23T13:12:41.106Z,19.60
2019-03-23T13:15:12.824Z,14.90
2019-03-23T13:17:42.109Z,11.57
2019-03-23T13:20:12.207Z,8.40
2019-03-23T13:22:41.400Z,8.93
2019-03-23T13:25:10.952Z,8.13
2019-03-23T13:27:42.155Z,11.13
2019-03-23T13:30:17.632Z,11.17
2019-03-23T13:32:46.970Z,9.10
2019-03-23T13:35:16.168Z,7.77
2019-03-23T13:37:45.349Z,9.07
2019-03-23T13:40:14.566Z,7.67
2019-03-23T13:42:43.765Z,6.33
2019-03-23T13:45:13.601Z,9.47
2019-03-23T13:47:42.795Z,11.47
2019-03-23T13:50:12.405Z,13.37
2019-03-23T13:52:41.600Z,8.03
2019-03-23T13:55:13.826Z,11.57
2019-03-23T13:57:43.029Z,10.63
2019-03-23T14:00:12.657Z,9.40
2019-03-23T14:02:41.855Z,8.13
2019-03-23T14:05:16.137Z,7.87
2019-03-23T14:07:41.991Z,10.67
2019-03-23T14:10:11.266Z,6.87
2019-03-23T14:12:40.519Z,7.90
2019-03-23T14:15:10.044Z,12.10
2019-03-23T14:17:39.234Z,12.00
2019-03-23T14:20:08.568Z,11.10
2019-03-23T14:22:37.774Z,8.13
2019-03-23T14:25:07.412Z,15.67
2019-03-23T14:27:36.573Z,7.47
2019-03-23T14:30:07.867Z,13.00
2019-03-23T14:32:37.140Z,11.97
2019-03-23T14:35:07.185Z,10.83
2019-03-23T14:37:36.446Z,18.07
2019-03-23T14:40:06.849Z,18.20
2019-03-23T14:42:36.368Z,15.10
2019-03-23T14:45:07.297Z,9.80
2019-03-23T14:47:36.444Z,11.50
2019-03-23T14:50:07.392Z,9.67
2019-03-23T14:52:36.535Z,11.67
2019-03-23T14:55:07.281Z,9.20
2019-03-23T14:57:36.455Z,6.67
2019-03-23T15:00:09.623Z,8.63
2019-03-23T15:02:38.804Z,10.87
2019-03-23T15:05:09.134Z,12.13
2019-03-23T15:07:38.309Z,13.37
2019-03-23T15:10:09.542Z,13.00
2019-03-23T15:12:38.772Z,17.17
2019-03-23T15:15:08.982Z,10.40
2019-03-23T15:17:48.250Z,14.97
2019-03-23T15:20:09.378Z,12.10
2019-03-23T15:22:38.566Z,8.00
2019-03-23T15:25:08.181Z,8.00
2019-03-23T15:27:37.385Z,14.70
2019-03-23T15:30:08.299Z,10.90
2019-03-23T15:32:37.541Z,7.80
2019-03-23T15:35:07.563Z,11.80
2019-03-23T15:37:36.753Z,10.50
2019-03-23T15:40:07.538Z,6.60
2019-03-23T15:42:36.849Z,11.30
2019-03-23T15:45:08.151Z,14.43
2019-03-23T15:47:37.339Z,13.67
2019-03-23T15:50:07.409Z,13.43
2019-03-23T15:52:36.627Z,14.50
2019-03-23T15:55:06.265Z,17.50
2019-03-23T15:57:35.882Z,9.83
2019-03-23T16:00:09.983Z,15.47
2019-03-23T16:02:39.233Z,15.50
2019-03-23T16:05:09.093Z,13.20
2019-03-23T16:07:38.313Z,11.07
2019-03-23T16:10:08.515Z,6.60
2019-03-23T16:12:37.966Z,14.57
2019-03-23T16:15:13.825Z,12.90
2019-03-23T16:17:43.015Z,10.07
2019-03-23T16:20:13.063Z,17.57
2019-03-23T16:22:42.237Z,8.60
2019-03-23T16:25:11.867Z,15.03
2019-03-23T16:27:41.046Z,12.63
2019-03-23T16:30:11.890Z,12.67
2019-03-23T16:32:41.240Z,10.57
2019-03-23T16:35:11.163Z,12.83
2019-03-23T16:37:40.370Z,8.40
2019-03-23T16:40:10.098Z,14.90
2019-03-23T16:42:45.292Z,11.33
2019-03-23T16:45:10.913Z,11.07
2019-03-23T16:47:40.137Z,10.00
2019-03-23T16:50:10.156Z,18.53
2019-03-23T16:52:39.411Z,12.13
2019-03-23T16:55:10.528Z,11.83
2019-03-23T16:57:39.716Z,20.00
2019-03-23T17:00:14.602Z,12.23
2019-03-23T17:02:43.786Z,10.30
2019-03-23T17:05:14.714Z,9.50
2019-03-23T17:07:43.933Z,12.33
2019-03-23T17:10:13.192Z,15.83
2019-03-23T17:12:42.382Z,11.83
2019-03-23T17:15:11.957Z,11.43
2019-03-23T17:17:41.247Z,14.70
2019-03-23T17:20:10.762Z,11.00
2019-03-23T17:22:40.051Z,11.90
2019-03-23T17:25:09.987Z,12.47
2019-03-23T17:27:39.224Z,8.20
2019-03-23T17:30:09.146Z,10.77
2019-03-23T17:32:39.099Z,14.50
2019-03-23T17:35:08.755Z,14.87
2019-03-23T17:37:37.955Z,11.13
2019-03-23T17:40:08.265Z,12.07
2019-03-23T17:42:37.527Z,20.50
2019-03-23T17:45:10.084Z,13.70
2019-03-23T17:47:39.321Z,13.33
2019-03-23T17:50:10.116Z,15.37
2019-03-23T17:52:39.320Z,11.77
2019-03-23T17:55:08.725Z,15.10
2019-03-23T17:57:37.922Z,12.00
2019-03-23T18:00:09.330Z,12.70
2019-03-23T18:02:38.599Z,9.83
2019-03-23T18:05:08.711Z,10.87
2019-03-23T18:07:37.955Z,11.20
2019-03-23T18:10:07.970Z,22.53
2019-03-23T18:12:37.364Z,13.43
2019-03-23T18:15:08.423Z,11.53
2019-03-23T18:17:37.635Z,13.33
2019-03-23T18:20:07.450Z,12.80
2019-03-23T18:22:36.754Z,15.53
2019-03-23T18:25:07.187Z,11.57
2019-03-23T18:27:36.456Z,11.50
2019-03-23T18:30:08.976Z,10.07
2019-03-23T18:32:38.156Z,13.47
2019-03-23T18:35:07.743Z,11.67
2019-03-23T18:37:36.912Z,8.73
2019-03-23T18:40:08.278Z,10.97
2019-03-23T18:42:37.813Z,11.27
2019-03-23T18:45:07.137Z,10.57
2019-03-23T18:47:36.404Z,10.30
2019-03-23T18:50:07.735Z,10.20
2019-03-23T18:52:36.907Z,11.43
2019-03-23T18:55:07.657Z,17.00
2019-03-23T18:57:36.921Z,18.40
2019-03-23T19:00:07.817Z,14.37
2019-03-23T19:02:37.015Z,17.07
2019-03-23T19:05:06.512Z,15.17
2019-03-23T19:07:35.777Z,12.40
2019-03-23T19:10:06.648Z,10.70
2019-03-23T19:12:35.816Z,12.07
2019-03-23T19:15:06.846Z,19.27
2019-03-23T19:17:36.029Z,14.17
2019-03-23T19:20:07.000Z,12.57
2019-03-23T19:22:36.181Z,10.77
2019-03-23T19:25:15.894Z,9.37
2019-03-23T19:27:37.709Z,14.87
2019-03-23T19:30:07.933Z,17.63
2019-03-23T19:32:37.137Z,14.30
2019-03-23T19:35:07.160Z,9.60
2019-03-23T19:37:38.719Z,8.60
2019-03-23T19:40:07.801Z,15.67
2019-03-23T19:42:36.968Z,18.27
2019-03-23T19:45:09.627Z,12.27
2019-03-23T19:47:38.796Z,8.93
2019-03-23T19:50:09.250Z,10.27
2019-03-23T19:52:38.433Z,14.83
2019-03-23T19:55:08.257Z,16.47
2019-03-23T19:57:37.432Z,9.40
2019-03-23T20:00:08.572Z,13.23
2019-03-23T20:02:37.768Z,10.03
2019-03-23T20:05:07.295Z,16.50
2019-03-23T20:07:36.481Z,10.73
2019-03-23T20:10:08.139Z,16.00
2019-03-23T20:12:37.463Z,18.53
2019-03-23T20:15:08.765Z,14.10
2019-03-23T20:17:38.116Z,15.90
2019-03-23T20:20:09.334Z,16.97
2019-03-23T20:22:38.591Z,11.90
2019-03-23T20:25:08.224Z,16.80
2019-03-23T20:27:37.498Z,13.90
2019-03-23T20:30:10.026Z,14.50
2019-03-23T20:32:39.281Z,17.23
2019-03-23T20:35:09.093Z,18.67
2019-03-23T20:37:38.270Z,14.17
2019-03-23T20:40:09.585Z,18.47
2019-03-23T20:42:38.682Z,17.87
2019-03-23T20:45:09.628Z,18.90
2019-03-23T20:47:40.642Z,13.33
2019-03-23T20:50:10.836Z,14.97
2019-03-23T20:52:41.550Z,11.60
2019-03-23T20:55:28.614Z,15.33
2019-03-23T20:57:57.871Z,17.93
2019-03-23T21:00:27.196Z,15.57
2019-03-23T21:02:56.435Z,17.40
2019-03-23T21:05:33.939Z,23.33
2019-03-23T21:07:56.501Z,11.93
2019-03-23T21:10:25.734Z,11.17
2019-03-23T21:12:54.984Z,16.20
2019-03-23T21:15:24.151Z,16.00
2019-03-23T21:17:53.329Z,12.87
2019-03-23T21:20:22.502Z,18.90
2019-03-23T21:22:51.719Z,17.63
2019-03-23T21:25:20.913Z,16.90
2019-03-23T21:27:50.090Z,14.63
2019-03-23T21:30:21.624Z,15.40
2019-03-23T21:32:50.884Z,18.80
2019-03-23T21:35:20.084Z,13.40
2019-03-23T21:37:49.263Z,17.23
2019-03-23T21:40:18.439Z,20.97
2019-03-23T21:42:47.623Z,13.90
2019-03-23T21:45:16.947Z,18.23
2019-03-23T21:47:46.145Z,15.90
2019-03-23T21:50:15.655Z,23.77
2019-03-23T21:52:44.911Z,16.80
2019-03-23T21:55:14.759Z,15.93
2019-03-23T21:57:43.985Z,19.00
2019-03-23T22:00:14.741Z,20.83
2019-03-23T22:02:43.961Z,21.93
2019-03-23T22:05:13.303Z,13.40
2019-03-23T22:07:42.494Z,11.80
2019-03-23T22:10:11.948Z,22.40
2019-03-23T22:12:41.205Z,16.30
2019-03-23T22:15:10.524Z,18.10
2019-03-23T22:17:39.701Z,11.40
2019-03-23T22:20:09.144Z,11.50
2019-03-23T22:22:38.334Z,20.27
2019-03-23T22:25:08.077Z,19.90
2019-03-23T22:27:38.136Z,14.63
2019-03-23T22:30:12.568Z,24.77
2019-03-23T22:32:42.189Z,22.70
2019-03-23T22:35:11.625Z,12.20
2019-03-23T22:37:40.919Z,18.63
2019-03-23T22:40:12.242Z,13.20
2019-03-23T22:42:41.500Z,17.00
2019-03-23T22:45:10.974Z,24.70
2019-03-23T22:47:40.246Z,25.50
2019-03-23T22:50:10.254Z,15.87
2019-03-23T22:52:39.585Z,16.60
2019-03-23T22:55:09.981Z,16.87
2019-03-23T22:57:39.305Z,15.90
2019-03-23T23:00:15.878Z,21.43
2019-03-23T23:02:45.167Z,16.30
2019-03-23T23:05:14.544Z,14.20
2019-03-23T23:07:45.175Z,15.17
2019-03-23T23:10:14.985Z,14.93
2019-03-23T23:12:44.237Z,25.67
2019-03-23T23:15:14.092Z,13.10
2019-03-23T23:17:43.324Z,16.70
2019-03-23T23:20:12.554Z,15.43
2019-03-23T23:22:42.023Z,20.70
2019-03-23T23:25:11.524Z,20.97
2019-03-23T23:27:40.721Z,17.57
2019-03-23T23:30:11.807Z,13.93
2019-03-23T23:32:41.091Z,15.33
2019-03-23T23:35:11.419Z,15.17
2019-03-23T23:37:40.769Z,15.37
2019-03-23T23:40:10.377Z,16.37
2019-03-23T23:42:39.581Z,19.37
2019-03-23T23:45:15.469Z,21.60
2019-03-23T23:47:40.069Z,9.87
2019-03-23T23:50:10.124Z,20.97
2019-03-23T23:52:39.254Z,24.43
2019-03-23T23:55:08.674Z,16.30
2019-03-23T23:57:38.093Z,17.90
